createdAt,value
2023-01-09T17:25:47.769Z,99801.06
2023-01-09T17:30:53.082Z,99821.19
2023-01-09T17:35:58.493Z,99827.63
2023-01-09T17:41:06.535Z,99830.03
2023-01-09T17:46:17.886Z,99847.88
2023-01-09T17:51:23.193Z,99864.94
2023-01-09T17:56:33.037Z,99868.28
2023-01-09T18:01:38.157Z,99874.97
2023-01-09T18:06:43.295Z,99881.59
2023-01-09T18:11:51.087Z,99887.47
2023-01-09T18:16:56.363Z,99903.72
2023-01-09T18:22:03.760Z,99926.66
2023-01-09T18:27:11.555Z,99935.16
2023-01-09T18:32:16.734Z,99941.13
2023-01-09T18:37:22.030Z,99947.03
2023-01-09T18:42:29.733Z,99959.75
2023-01-09T18:47:34.868Z,99956.16
2023-01-09T18:52:40.133Z,99969.66
2023-01-09T18:57:47.973Z,99977.97
2023-01-09T19:02:53.408Z,99988.94
2023-01-09T19:07:58.668Z,100000.75
2023-01-09T19:13:06.526Z,100004.91
2023-01-09T19:18:11.629Z,100011.69
2023-01-09T19:23:17.093Z,100020.16
2023-01-09T19:28:24.780Z,100029.47
2023-01-09T19:33:29.845Z,100033.78
2023-01-09T19:38:34.923Z,100042.25
2023-01-09T19:43:42.695Z,100061.91
2023-01-09T19:48:47.963Z,100068.72
2023-01-09T19:53:54.505Z,100070.34
2023-01-09T19:59:03.199Z,100083.09
2023-01-09T20:04:13.834Z,100089.91
2023-01-09T20:09:22.260Z,100095.81
2023-01-09T20:14:30.155Z,100109.41
2023-01-09T20:19:35.412Z,100122.13
2023-01-09T20:24:40.856Z,100135.00
2023-01-09T20:29:49.497Z,100149.53
2023-01-09T20:34:54.706Z,100164.00
2023-01-09T20:40:00.296Z,100178.63
2023-01-09T20:45:09.576Z,100193.25
2023-01-09T20:50:16.099Z,100207.84
2023-01-09T20:55:21.999Z,100219.03
2023-01-09T21:00:32.184Z,100229.34
2023-01-09T21:05:37.410Z,100237.19
2023-01-09T21:10:42.545Z,100245.91
2023-01-09T21:15:50.227Z,100258.72
2023-01-09T21:20:55.528Z,100270.63
2023-01-09T21:26:00.762Z,100285.06
2023-01-09T21:31:08.734Z,100302.00
2023-01-09T21:36:13.958Z,100302.00
2023-01-09T21:41:31.747Z,100306.22
2023-01-09T21:46:57.628Z,100312.19
2023-01-09T21:52:03.551Z,100321.63
2023-01-09T21:57:09.174Z,100325.88
